createdAt,value
2017-04-15T00:00:56.931Z,101007.25
2017-04-15T00:01:55.563Z,101007.44
2017-04-15T00:02:54.170Z,101004.52
2017-04-15T00:03:52.671Z,101004.39
2017-04-15T00:04:51.168Z,101005.58
2017-04-15T00:05:49.771Z,101004.14
2017-04-15T00:06:48.432Z,101007.46
2017-04-15T00:07:47.028Z,101009.11
2017-04-15T00:08:45.672Z,101004.99
2017-04-15T00:09:44.307Z,101009.22
2017-04-15T00:10:42.967Z,101007.84
2017-04-15T00:11:41.650Z,101007.01
2017-04-15T00:12:40.194Z,101007.75
2017-04-15T00:13:38.810Z,101005.15
2017-04-15T00:14:37.322Z,101002.64
2017-04-15T00:15:35.825Z,101001.96
2017-04-15T00:16:34.320Z,101004.30
2017-04-15T00:17:33.589Z,101002.84
2017-04-15T00:18:32.103Z,101003.45
2017-04-15T00:19:30.767Z,101000.20
2017-04-15T00:20:29.293Z,100996.94
2017-04-15T00:21:27.842Z,100996.42
2017-04-15T00:22:26.774Z,100993.05
2017-04-15T00:23:25.382Z,100992.27
2017-04-15T00:24:23.923Z,100992.97
2017-04-15T00:25:22.443Z,100997.27
2017-04-15T00:26:20.971Z,100991.50
2017-04-15T00:27:19.519Z,100994.61
2017-04-15T00:28:18.091Z,100990.80
2017-04-15T00:29:16.634Z,100996.73
2017-04-15T00:30:15.137Z,100993.53
2017-04-15T00:31:13.707Z,100991.01
2017-04-15T00:32:12.228Z,100992.22
2017-04-15T00:33:11.171Z,100993.42
2017-04-15T00:34:09.711Z,100988.51
2017-04-15T00:35:08.244Z,100988.43
2017-04-15T00:36:06.796Z,100994.55
2017-04-15T00:37:05.444Z,100993.25
2017-04-15T00:38:03.955Z,100987.88
2017-04-15T00:39:02.516Z,100989.65
2017-04-15T00:40:01.169Z,100991.16
2017-04-15T00:40:59.759Z,100995.67
2017-04-15T00:41:58.336Z,100995.67
2017-04-15T00:42:56.868Z,100988.86
2017-04-15T00:43:55.680Z,100986.95
2017-04-15T00:44:54.313Z,100985.69
2017-04-15T00:45:52.831Z,100988.80
2017-04-15T00:46:51.347Z,100989.06
2017-04-15T00:47:49.860Z,100982.53
2017-04-15T00:48:48.399Z,100979.13
2017-04-15T00:49:46.946Z,100982.54
2017-04-15T00:50:45.531Z,100980.91
2017-04-15T00:51:44.119Z,100979.16
2017-04-15T00:52:42.750Z,100980.66
2017-04-15T00:53:41.356Z,100983.27
2017-04-15T00:54:40.190Z,100980.53
2017-04-15T00:55:38.706Z,100981.84
2017-04-15T00:56:37.219Z,100976.20
2017-04-15T00:57:35.731Z,100978.05
2017-04-15T00:58:34.326Z,100979.70
2017-04-15T00:59:32.887Z,100982.48
2017-04-15T01:00:31.474Z,100982.16
2017-04-15T01:01:30.015Z,100980.02
2017-04-15T01:02:28.530Z,100977.16
2017-04-15T01:03:27.072Z,100981.17
2017-04-15T01:04:25.591Z,100979.61
2017-04-15T01:05:24.504Z,100976.52
2017-04-15T01:06:23.032Z,100979.38
2017-04-15T01:07:21.558Z,100976.30
2017-04-15T01:08:20.161Z,100974.73
2017-04-15T01:09:18.759Z,100974.60
2017-04-15T01:10:17.298Z,100974.06
2017-04-15T01:11:15.914Z,100974.45
2017-04-15T01:12:14.427Z,100966.34
2017-04-15T01:13:12.968Z,100973.27
2017-04-15T01:14:11.451Z,100977.92
2017-04-15T01:15:09.939Z,100975.30
2017-04-15T01:16:08.899Z,100970.33
2017-04-15T01:17:07.429Z,100971.28
2017-04-15T01:18:05.928Z,100971.69
2017-04-15T01:19:04.442Z,100966.41
2017-04-15T01:20:02.982Z,100966.39
2017-04-15T01:21:01.511Z,100967.68
2017-04-15T01:22:00.252Z,100966.16
2017-04-15T01:22:58.896Z,100968.30
2017-04-15T01:23:57.478Z,100968.88
2017-04-15T01:24:56.004Z,100962.69
2017-04-15T01:25:54.655Z,100962.06
2017-04-15T01:26:53.282Z,100961.37
2017-04-15T01:27:52.027Z,100964.88
2017-04-15T01:28:50.521Z,100960.59
2017-04-15T01:29:49.075Z,100962.89
2017-04-15T01:30:47.768Z,100968.03
2017-04-15T01:31:46.386Z,100963.25
2017-04-15T01:32:44.960Z,100957.56
2017-04-15T01:33:43.927Z,100966.27
2017-04-15T01:34:42.547Z,100965.53
2017-04-15T01:35:41.063Z,100962.77
2017-04-15T01:36:39.586Z,100965.42
2017-04-15T01:37:38.185Z,100958.24
2017-04-15T01:38:36.676Z,100963.70
2017-04-15T01:39:35.459Z,100956.69
2017-04-15T01:40:33.959Z,100957.55
2017-04-15T01:41:32.471Z,100957.34
2017-04-15T01:42:31.021Z,100961.45
2017-04-15T01:43:29.547Z,100962.47
2017-04-15T01:44:28.083Z,100963.75
2017-04-15T01:45:27.008Z,100962.16
2017-04-15T01:46:25.579Z,100959.09
2017-04-15T01:47:24.102Z,100958.41
2017-04-15T01:48:22.628Z,100958.45
2017-04-15T01:49:21.170Z,100959.15
2017-04-15T01:50:19.724Z,100951.64
2017-04-15T01:51:18.343Z,100957.53
2017-04-15T01:52:16.850Z,100954.59
2017-04-15T01:53:15.463Z,100957.92
2017-04-15T01:54:13.980Z,100956.27
2017-04-15T01:55:12.527Z,100954.59
2017-04-15T01:56:11.307Z,100959.20
2017-04-15T01:57:09.824Z,100957.97
2017-04-15T01:58:08.359Z,100959.13
2017-04-15T01:59:06.853Z,100955.11
2017-04-15T02:00:05.389Z,100956.02
2017-04-15T02:01:03.950Z,100958.74
2017-04-15T02:02:02.597Z,100959.80
2017-04-15T02:03:01.162Z,100954.75
2017-04-15T02:03:59.869Z,100958.13
2017-04-15T02:04:58.388Z,100955.91
2017-04-15T02:05:56.939Z,100956.63
2017-04-15T02:06:55.920Z,100954.52
2017-04-15T02:07:54.467Z,100950.45
2017-04-15T02:08:53.063Z,100951.17
2017-04-15T02:09:51.642Z,100950.89
2017-04-15T02:10:50.222Z,100949.50
2017-04-15T02:11:48.730Z,100954.67
2017-04-15T02:12:47.270Z,100951.95
2017-04-15T02:13:45.868Z,100947.95
2017-04-15T02:14:44.459Z,100948.87
2017-04-15T02:15:43.138Z,100947.05
2017-04-15T02:16:41.654Z,100947.95
2017-04-15T02:17:40.515Z,100950.91
2017-04-15T02:18:39.035Z,100951.69
2017-04-15T02:19:37.619Z,100944.84
2017-04-15T02:20:36.327Z,100953.48
2017-04-15T02:21:34.883Z,100956.71
2017-04-15T02:22:33.417Z,100948.57
2017-04-15T02:23:32.035Z,100951.41
2017-04-15T02:24:30.535Z,100953.75
2017-04-15T02:25:29.064Z,100951.07
2017-04-15T02:26:27.620Z,100949.45
2017-04-15T02:27:26.163Z,100940.33
2017-04-15T02:28:24.943Z,100943.75
2017-04-15T02:29:23.478Z,100944.66
2017-04-15T02:30:22.032Z,100944.09
2017-04-15T02:31:20.516Z,100944.02
2017-04-15T02:32:19.032Z,100942.55
2017-04-15T02:33:17.590Z,100941.85
2017-04-15T02:34:16.139Z,100936.95
2017-04-15T02:35:14.683Z,100937.70
2017-04-15T02:36:13.219Z,100941.00
2017-04-15T02:37:11.748Z,100934.51
2017-04-15T02:38:10.259Z,100935.84
2017-04-15T02:39:09.128Z,100934.48
2017-04-15T02:40:07.706Z,100934.33
2017-04-15T02:41:06.263Z,100935.69
2017-04-15T02:42:04.853Z,100931.41
2017-04-15T02:43:03.399Z,100931.67
2017-04-15T02:44:01.894Z,100930.07
2017-04-15T02:45:00.482Z,100922.71
2017-04-15T02:45:59.030Z,100927.86
2017-04-15T02:46:57.554Z,100926.86
2017-04-15T02:47:56.072Z,100919.66
2017-04-15T02:48:54.632Z,100917.75
2017-04-15T02:49:53.435Z,100917.35
2017-04-15T02:50:51.922Z,100920.26
2017-04-15T02:51:50.503Z,100915.75
2017-04-15T02:52:49.114Z,100916.96
2017-04-15T02:53:47.790Z,100918.47
2017-04-15T02:54:46.387Z,100917.26
2017-04-15T02:55:45.027Z,100915.80
2017-04-15T02:56:43.599Z,100913.62
2017-04-15T02:57:42.130Z,100908.88
2017-04-15T02:58:40.654Z,100913.44
2017-04-15T02:59:39.203Z,100912.79
2017-04-15T03:00:37.741Z,100909.44
2017-04-15T03:01:36.296Z,100906.12
2017-04-15T03:02:34.984Z,100906.29
2017-04-15T03:03:33.483Z,100907.11
2017-04-15T03:04:32.370Z,100906.95
2017-04-15T03:05:30.939Z,100900.50
2017-04-15T03:06:29.455Z,100904.95
2017-04-15T03:07:28.021Z,100901.55
2017-04-15T03:08:26.535Z,100902.03
2017-04-15T03:09:25.095Z,100905.64
2017-04-15T03:10:23.731Z,100905.48
2017-04-15T03:11:22.335Z,100908.36
2017-04-15T03:12:20.858Z,100907.59
2017-04-15T03:13:19.712Z,100908.55
2017-04-15T03:14:18.251Z,100906.62
2017-04-15T03:15:16.782Z,100907.13
2017-04-15T03:16:15.295Z,100900.65
2017-04-15T03:17:13.822Z,100903.02
2017-04-15T03:18:12.355Z,100904.19
2017-04-15T03:19:11.239Z,100907.26
2017-04-15T03:20:09.799Z,100905.55
2017-04-15T03:21:08.587Z,100901.64
2017-04-15T03:22:07.168Z,100895.63
2017-04-15T03:23:05.659Z,100896.48
2017-04-15T03:24:04.170Z,100900.11
2017-04-15T03:25:02.699Z,100893.94
2017-04-15T03:26:01.188Z,100892.66
2017-04-15T03:26:59.724Z,100887.56
2017-04-15T03:27:58.295Z,100898.02
2017-04-15T03:28:56.791Z,100891.36
2017-04-15T03:29:55.657Z,100894.59
2017-04-15T03:30:54.187Z,100897.52
2017-04-15T03:31:52.703Z,100891.38
2017-04-15T03:32:51.209Z,100892.46
2017-04-15T03:33:49.767Z,100892.28
2017-04-15T03:34:48.322Z,100892.85
2017-04-15T03:35:46.903Z,100893.94
2017-04-15T03:36:45.446Z,100895.67
2017-04-15T03:37:43.959Z,100894.17
2017-04-15T03:38:42.519Z,100893.91
2017-04-15T03:39:41.038Z,100892.16
2017-04-15T03:40:39.907Z,100893.95
2017-04-15T03:41:38.407Z,100894.87
2017-04-15T03:42:36.915Z,100892.27
2017-04-15T03:43:35.387Z,100887.53
2017-04-15T03:44:34.028Z,100887.62
2017-04-15T03:45:32.539Z,100889.22
2017-04-15T03:46:31.218Z,100890.36
2017-04-15T03:47:29.791Z,100892.89
2017-04-15T03:48:28.324Z,100893.49
2017-04-15T03:49:26.925Z,100888.92
2017-04-15T03:50:25.479Z,100884.80
2017-04-15T03:51:24.130Z,100889.34
2017-04-15T03:52:22.686Z,100888.90
2017-04-15T03:53:21.219Z,100887.69
2017-04-15T03:54:19.744Z,100890.36
2017-04-15T03:55:18.259Z,100883.80
2017-04-15T03:56:16.763Z,100879.77
2017-04-15T03:57:15.323Z,100890.84
2017-04-15T03:58:13.850Z,100890.26
2017-04-15T03:59:12.490Z,100888.83
2017-04-15T04:00:11.112Z,100885.09
2017-04-15T04:01:09.649Z,100884.25
2017-04-15T04:02:08.547Z,100879.85
2017-04-15T04:03:07.125Z,100880.60
2017-04-15T04:04:05.691Z,100885.30
2017-04-15T04:05:04.214Z,100885.27
2017-04-15T04:06:02.725Z,100883.30
2017-04-15T04:07:01.265Z,100884.80
2017-04-15T04:07:59.935Z,100884.56
2017-04-15T04:08:58.546Z,100880.92
2017-04-15T04:09:57.072Z,100888.79
2017-04-15T04:10:55.587Z,100884.72
2017-04-15T04:11:54.111Z,100883.55
2017-04-15T04:12:52.951Z,100879.11
2017-04-15T04:13:51.488Z,100879.41
2017-04-15T04:14:50.082Z,100884.70
2017-04-15T04:15:48.604Z,100882.72
2017-04-15T04:16:49.481Z,100874.34
2017-04-15T04:17:48.571Z,100880.92
2017-04-15T04:18:47.666Z,100889.05
2017-04-15T04:19:46.214Z,100886.34
2017-04-15T04:20:44.746Z,100880.91
2017-04-15T04:21:43.247Z,100877.84
2017-04-15T04:22:41.762Z,100883.43
2017-04-15T04:23:40.736Z,100875.95
2017-04-15T04:24:39.244Z,100876.43
2017-04-15T04:25:37.775Z,100880.66
2017-04-15T04:26:36.259Z,100878.95
2017-04-15T04:27:34.763Z,100885.67
2017-04-15T04:28:33.333Z,100882.97
2017-04-15T04:29:31.879Z,100875.89
2017-04-15T04:30:30.495Z,100879.48
2017-04-15T04:31:29.007Z,100871.68
2017-04-15T04:32:27.511Z,100876.22
2017-04-15T04:33:26.030Z,100873.84
2017-04-15T04:34:24.735Z,100873.39
2017-04-15T04:35:23.329Z,100870.52
2017-04-15T04:36:21.852Z,100870.50
2017-04-15T04:37:20.353Z,100872.00
2017-04-15T04:38:18.935Z,100866.36
2017-04-15T04:39:17.492Z,100871.03
2017-04-15T04:40:16.063Z,100875.27
2017-04-15T04:41:14.571Z,100868.66
2017-04-15T04:42:13.322Z,100875.11
2017-04-15T04:43:11.874Z,100877.64
2017-04-15T04:44:10.514Z,100871.55
2017-04-15T04:45:09.330Z,100871.05
2017-04-15T04:46:07.855Z,100869.67
2017-04-15T04:47:06.387Z,100878.63
2017-04-15T04:48:04.979Z,100861.41
2017-04-15T04:49:03.482Z,100865.37
2017-04-15T04:50:02.011Z,100874.23
2017-04-15T04:51:00.596Z,100868.61
2017-04-15T04:51:59.155Z,100869.43
2017-04-15T04:52:57.676Z,100871.20
2017-04-15T04:53:56.184Z,100876.19
2017-04-15T04:54:54.727Z,100869.73
2017-04-15T04:55:53.284Z,100871.21
2017-04-15T04:56:52.215Z,100869.76
2017-04-15T04:57:50.751Z,100875.38
2017-04-15T04:58:49.375Z,100874.27
2017-04-15T04:59:47.902Z,100877.53
2017-04-15T05:00:46.626Z,100874.94
2017-04-15T05:01:45.191Z,100865.71
2017-04-15T05:02:44.102Z,100872.06
2017-04-15T05:03:42.679Z,100875.27
2017-04-15T05:04:41.204Z,100879.23
2017-04-15T05:05:39.774Z,100880.73
2017-04-15T05:06:38.356Z,100880.34
2017-04-15T05:07:36.912Z,100874.52
2017-04-15T05:08:35.451Z,100880.84
2017-04-15T05:09:34.022Z,100880.33
2017-04-15T05:10:32.666Z,100881.03
2017-04-15T05:11:31.383Z,100874.74
2017-04-15T05:12:29.923Z,100879.85
2017-04-15T05:13:28.682Z,100874.56
2017-04-15T05:14:27.240Z,100881.94
2017-04-15T05:15:26.028Z,100879.38
2017-04-15T05:16:24.523Z,100870.35
2017-04-15T05:17:23.043Z,100879.23
2017-04-15T05:18:21.561Z,100877.06
2017-04-15T05:19:20.124Z,100881.31
2017-04-15T05:20:18.647Z,100876.11
2017-04-15T05:21:17.147Z,100877.97
2017-04-15T05:22:15.687Z,100877.75
2017-04-15T05:23:14.207Z,100874.92
2017-04-15T05:24:13.048Z,100874.48
2017-04-15T05:25:11.582Z,100875.81
2017-04-15T05:26:10.599Z,100882.25
2017-04-15T05:27:09.180Z,100880.20
2017-04-15T05:28:07.674Z,100876.53
2017-04-15T05:29:06.190Z,100876.41
2017-04-15T05:30:04.783Z,100879.91
2017-04-15T05:31:03.330Z,100880.23
2017-04-15T05:32:01.902Z,100881.77
2017-04-15T05:33:00.446Z,100876.33
2017-04-15T05:33:58.959Z,100882.85
2017-04-15T05:34:57.689Z,100877.86
2017-04-15T05:35:56.206Z,100881.49
2017-04-15T05:36:54.690Z,100880.75
2017-04-15T05:37:53.296Z,100875.89
2017-04-15T05:38:51.786Z,100875.72
2017-04-15T05:39:50.294Z,100883.15
2017-04-15T05:40:48.840Z,100878.57
2017-04-15T05:41:47.432Z,100876.61
2017-04-15T05:42:45.997Z,100874.14
2017-04-15T05:43:44.514Z,100881.91
2017-04-15T05:44:43.045Z,100877.47
2017-04-15T05:45:41.778Z,100881.77
2017-04-15T05:46:40.307Z,100878.94
2017-04-15T05:47:38.807Z,100880.73
2017-04-15T05:48:37.346Z,100870.73
2017-04-15T05:49:35.868Z,100877.69
2017-04-15T05:50:34.371Z,100872.55
2017-04-15T05:51:32.910Z,100878.95
2017-04-15T05:52:31.492Z,100883.30
2017-04-15T05:53:30.051Z,100877.08
2017-04-15T05:54:28.638Z,100877.77
2017-04-15T05:55:27.140Z,100880.86
2017-04-15T05:56:25.874Z,100882.73
2017-04-15T05:57:24.387Z,100877.90
2017-04-15T05:58:22.898Z,100877.25
2017-04-15T05:59:21.396Z,100880.19
2017-04-15T06:00:20.021Z,100875.40
2017-04-15T06:01:18.680Z,100877.46
2017-04-15T06:02:17.259Z,100879.67
2017-04-15T06:03:15.860Z,100887.70
2017-04-15T06:04:14.352Z,100881.47
2017-04-15T06:05:12.887Z,100883.48
2017-04-15T06:06:11.419Z,100878.47
2017-04-15T06:07:10.398Z,100878.34
2017-04-15T06:08:08.962Z,100879.80
2017-04-15T06:09:07.530Z,100875.53
2017-04-15T06:10:06.050Z,100880.36
2017-04-15T06:11:04.566Z,100884.27
2017-04-15T06:12:03.115Z,100881.78
2017-04-15T06:13:01.704Z,100881.77
2017-04-15T06:14:00.221Z,100883.26
2017-04-15T06:14:58.711Z,100889.72
2017-04-15T06:15:57.334Z,100885.70
2017-04-15T06:16:55.963Z,100884.36
2017-04-15T06:17:54.587Z,100889.10
2017-04-15T06:18:53.375Z,100884.48
2017-04-15T06:19:51.863Z,100887.70
2017-04-15T06:20:50.447Z,100885.75
2017-04-15T06:21:49.052Z,100886.50
2017-04-15T06:22:47.599Z,100890.94
2017-04-15T06:23:46.133Z,100885.03
2017-04-15T06:24:44.899Z,100889.28
2017-04-15T06:25:43.459Z,100891.39
2017-04-15T06:26:42.103Z,100888.28
2017-04-15T06:27:40.815Z,100894.10
2017-04-15T06:28:39.497Z,100886.53
2017-04-15T06:29:38.019Z,100892.98
2017-04-15T06:30:36.814Z,100888.38
2017-04-15T06:31:35.338Z,100889.95
2017-04-15T06:32:34.064Z,100893.05
2017-04-15T06:33:32.626Z,100891.46
2017-04-15T06:34:31.777Z,100894.48
2017-04-15T06:35:30.457Z,100887.97
2017-04-15T06:36:29.099Z,100889.87
2017-04-15T06:37:27.791Z,100888.73
2017-04-15T06:38:26.354Z,100892.23
2017-04-15T06:39:24.946Z,100895.22
2017-04-15T06:40:23.479Z,100890.85
2017-04-15T06:41:22.211Z,100896.56
2017-04-15T06:42:20.866Z,100882.25
2017-04-15T06:43:19.397Z,100885.31
2017-04-15T06:44:18.008Z,100890.59
2017-04-15T06:45:16.615Z,100895.86
2017-04-15T06:46:15.554Z,100892.56
2017-04-15T06:47:14.201Z,100891.16
2017-04-15T06:48:12.801Z,100894.01
2017-04-15T06:49:11.378Z,100889.17
2017-04-15T06:50:09.924Z,100887.70
2017-04-15T06:51:08.503Z,100887.65
2017-04-15T06:52:07.138Z,100889.83
2017-04-15T06:53:05.678Z,100893.12
2017-04-15T06:54:04.178Z,100891.66
2017-04-15T06:55:02.800Z,100893.09
2017-04-15T06:56:01.316Z,100892.21
2017-04-15T06:57:00.276Z,100892.78
2017-04-15T06:57:58.956Z,100887.80
2017-04-15T06:58:57.472Z,100889.95
2017-04-15T06:59:56.000Z,100890.27
2017-04-15T07:00:54.543Z,100884.12
2017-04-15T07:01:53.066Z,100894.47
2017-04-15T07:02:51.687Z,100894.44
2017-04-15T07:03:50.299Z,100887.84
2017-04-15T07:04:48.874Z,100890.61
2017-04-15T07:05:47.480Z,100897.27
2017-04-15T07:06:46.026Z,100889.41
2017-04-15T07:07:44.986Z,100895.27
2017-04-15T07:08:43.518Z,100893.11
2017-04-15T07:09:42.051Z,100897.56
2017-04-15T07:10:40.695Z,100894.57
2017-04-15T07:11:39.232Z,100892.62
2017-04-15T07:12:37.743Z,100893.64
2017-04-15T07:13:36.544Z,100893.94
2017-04-15T07:14:35.075Z,100891.58
2017-04-15T07:15:33.628Z,100892.73
2017-04-15T07:16:32.143Z,100893.91
2017-04-15T07:17:30.695Z,100893.39
2017-04-15T07:18:29.723Z,100894.45
2017-04-15T07:19:28.259Z,100895.91
2017-04-15T07:20:26.788Z,100903.05
2017-04-15T07:21:25.419Z,100893.02
2017-04-15T07:22:23.945Z,100901.20
2017-04-15T07:23:22.460Z,100896.29
2017-04-15T07:24:21.067Z,100894.28
2017-04-15T07:25:19.588Z,100905.59
2017-04-15T07:26:18.127Z,100896.42
2017-04-15T07:27:16.684Z,100903.48
2017-04-15T07:28:15.341Z,100894.06
2017-04-15T07:29:14.247Z,100897.85
2017-04-15T07:30:12.770Z,100902.05
2017-04-15T07:31:11.320Z,100901.13
2017-04-15T07:32:09.921Z,100902.63
2017-04-15T07:33:08.499Z,100902.15
2017-04-15T07:34:07.107Z,100906.22
2017-04-15T07:35:05.719Z,100896.99
2017-04-15T07:36:04.229Z,100901.64
2017-04-15T07:37:02.861Z,100897.44
2017-04-15T07:38:01.491Z,100899.48
2017-04-15T07:39:00.048Z,100907.05
2017-04-15T07:39:58.579Z,100903.27
2017-04-15T07:40:57.318Z,100904.03
2017-04-15T07:41:55.828Z,100910.02
2017-04-15T07:42:54.386Z,100906.00
2017-04-15T07:43:52.871Z,100902.31
2017-04-15T07:44:51.386Z,100917.24
2017-04-15T07:45:49.909Z,100912.59
2017-04-15T07:46:48.634Z,100911.35
2017-04-15T07:47:47.234Z,100913.23
2017-04-15T07:48:45.775Z,100918.27
2017-04-15T07:49:44.298Z,100917.95
2017-04-15T07:50:42.839Z,100911.92
2017-04-15T07:51:41.342Z,100911.26
2017-04-15T07:52:40.140Z,100916.92
2017-04-15T07:53:38.745Z,100919.79
2017-04-15T07:54:37.299Z,100915.88
2017-04-15T07:55:35.815Z,100916.98
2017-04-15T07:56:34.324Z,100921.86
2017-04-15T07:57:32.849Z,100931.13
2017-04-15T07:58:32.390Z,100925.39
2017-04-15T07:59:30.974Z,100923.58
2017-04-15T08:00:29.649Z,100918.01
2017-04-15T08:01:28.235Z,100915.59
2017-04-15T08:02:26.794Z,100929.77
2017-04-15T08:03:25.616Z,100925.17
2017-04-15T08:04:24.250Z,100925.81
2017-04-15T08:05:22.830Z,100929.31
2017-04-15T08:06:21.422Z,100922.56
2017-04-15T08:07:19.962Z,100925.42
2017-04-15T08:08:18.678Z,100918.36
2017-04-15T08:09:17.554Z,100928.39
2017-04-15T08:10:16.101Z,100930.27
2017-04-15T08:11:14.731Z,100926.61
2017-04-15T08:12:13.304Z,100926.64
2017-04-15T08:13:11.814Z,100929.06
2017-04-15T08:14:10.499Z,100930.14
2017-04-15T08:15:08.992Z,100928.77
2017-04-15T08:16:07.547Z,100930.36
2017-04-15T08:17:06.085Z,100923.90
2017-04-15T08:18:04.595Z,100932.31
2017-04-15T08:19:03.139Z,100934.89
2017-04-15T08:20:01.730Z,100935.49
2017-04-15T08:21:00.248Z,100929.00
2017-04-15T08:21:59.078Z,100936.80
2017-04-15T08:22:57.589Z,100934.66
2017-04-15T08:23:56.195Z,100932.37
2017-04-15T08:24:55.017Z,100932.63
2017-04-15T08:25:53.598Z,100934.56
2017-04-15T08:26:52.117Z,100939.47
2017-04-15T08:27:50.667Z,100929.13
2017-04-15T08:28:52.667Z,100932.14
2017-04-15T08:29:51.201Z,100941.80
2017-04-15T08:30:49.784Z,100945.13
2017-04-15T08:31:48.352Z,100941.03
2017-04-15T08:32:46.870Z,100942.34
2017-04-15T08:33:45.559Z,100946.61
2017-04-15T08:34:44.156Z,100943.32
2017-04-15T08:35:43.000Z,100943.16
2017-04-15T08:36:41.520Z,100940.64
2017-04-15T08:37:40.060Z,100942.94
2017-04-15T08:38:38.787Z,100950.36
2017-04-15T08:39:37.355Z,100945.52
2017-04-15T08:40:35.953Z,100944.78
2017-04-15T08:41:34.789Z,100947.65
2017-04-15T08:42:33.342Z,100945.13
2017-04-15T08:43:31.985Z,100951.70
2017-04-15T08:44:30.647Z,100951.13
2017-04-15T08:45:29.203Z,100942.09
2017-04-15T08:46:28.031Z,100948.28
2017-04-15T08:47:26.579Z,100946.58
2017-04-15T08:48:25.232Z,100954.64
2017-04-15T08:49:23.863Z,100956.23
2017-04-15T08:50:30.171Z,100956.78
2017-04-15T08:51:28.881Z,100959.05
2017-04-15T08:52:32.656Z,100948.63
2017-04-15T08:53:31.666Z,100955.04
2017-04-15T08:54:30.223Z,100952.55
2017-04-15T08:55:28.804Z,100958.22
2017-04-15T08:56:27.503Z,100953.92
2017-04-15T08:57:26.242Z,100952.51
2017-04-15T08:58:24.875Z,100961.08
2017-04-15T08:59:23.432Z,100960.30
2017-04-15T09:00:21.967Z,100956.82
2017-04-15T09:01:20.495Z,100957.67
2017-04-15T09:02:19.043Z,100961.63
2017-04-15T09:03:17.631Z,100957.73
2017-04-15T09:04:16.185Z,100963.50
2017-04-15T09:05:14.762Z,100967.05
2017-04-15T09:06:13.334Z,100966.27
2017-04-15T09:07:11.923Z,100962.03
2017-04-15T09:08:11.363Z,100964.81
2017-04-15T09:09:09.926Z,100964.79
2017-04-15T09:10:08.470Z,100966.55
2017-04-15T09:11:07.074Z,100969.16
2017-04-15T09:12:05.594Z,100969.63
2017-04-15T09:13:04.101Z,100967.57
2017-04-15T09:14:02.715Z,100969.68
2017-04-15T09:15:01.288Z,100973.63
2017-04-15T09:15:59.958Z,100973.16
2017-04-15T09:16:58.495Z,100972.05
2017-04-15T09:17:57.083Z,100967.84
2017-04-15T09:18:55.872Z,100976.31
2017-04-15T09:19:54.443Z,100973.45
2017-04-15T09:20:52.959Z,100972.27
2017-04-15T09:21:51.526Z,100971.48
2017-04-15T09:22:50.079Z,100979.47
2017-04-15T09:23:48.591Z,100974.79
2017-04-15T09:24:47.190Z,100974.93
2017-04-15T09:25:45.947Z,100973.88
2017-04-15T09:26:44.456Z,100976.18
2017-04-15T09:27:42.962Z,100976.90
2017-04-15T09:28:41.495Z,100977.59
2017-04-15T09:29:40.275Z,100972.55
2017-04-15T09:30:38.848Z,100967.98
2017-04-15T09:31:37.396Z,100976.69
2017-04-15T09:32:35.932Z,100969.97
2017-04-15T09:33:34.476Z,100976.00
2017-04-15T09:34:33.202Z,100969.61
2017-04-15T09:35:31.861Z,100968.67
2017-04-15T09:36:30.479Z,100971.38
2017-04-15T09:37:29.083Z,100981.05
2017-04-15T09:38:27.671Z,100974.30
2017-04-15T09:39:28.859Z,100976.45
2017-04-15T09:40:27.576Z,100971.80
2017-04-15T09:41:26.263Z,100978.98
2017-04-15T09:42:25.041Z,100981.48
2017-04-15T09:43:23.565Z,100978.70
2017-04-15T09:44:22.126Z,100980.71
2017-04-15T09:45:20.680Z,100983.85
2017-04-15T09:46:19.269Z,100987.17
2017-04-15T09:47:17.836Z,100981.53
2017-04-15T09:48:16.446Z,100986.86
2017-04-15T09:49:14.974Z,100977.62
2017-04-15T09:50:13.571Z,100980.17
2017-04-15T09:51:12.174Z,100983.85
2017-04-15T09:52:10.704Z,100979.34
2017-04-15T09:53:09.716Z,100982.85
2017-04-15T09:54:08.226Z,100982.15
2017-04-15T09:55:06.774Z,100975.51
2017-04-15T09:56:05.384Z,100984.91
2017-04-15T09:57:04.033Z,100983.88
2017-04-15T09:58:02.701Z,100979.72
2017-04-15T09:59:01.659Z,100985.52
2017-04-15T10:00:00.254Z,100985.21
2017-04-15T10:00:59.122Z,100989.00
2017-04-15T10:01:58.014Z,100986.91
2017-04-15T10:02:56.540Z,100987.45
2017-04-15T10:03:55.107Z,100980.20
2017-04-15T10:04:53.743Z,100981.84
2017-04-15T10:05:52.293Z,100985.97
2017-04-15T10:06:50.847Z,100989.34
2017-04-15T10:07:49.394Z,100991.53
2017-04-15T10:08:47.934Z,100985.32
2017-04-15T10:09:46.675Z,100980.45
2017-04-15T10:10:45.225Z,100988.52
2017-04-15T10:11:43.779Z,100979.45
2017-04-15T10:12:42.411Z,100987.41
2017-04-15T10:13:41.037Z,100981.45
2017-04-15T10:14:39.662Z,100984.52
2017-04-15T10:15:38.215Z,100986.89
2017-04-15T10:16:36.803Z,100990.14
2017-04-15T10:17:35.616Z,100987.07
2017-04-15T10:18:34.203Z,100980.94
2017-04-15T10:19:32.809Z,100984.62
2017-04-15T10:20:31.912Z,100983.20
2017-04-15T10:21:30.411Z,100985.66
2017-04-15T10:22:28.987Z,100985.16
2017-04-15T10:23:27.614Z,100984.65
2017-04-15T10:24:26.103Z,100985.19
2017-04-15T10:25:24.761Z,100989.00
2017-04-15T10:26:23.359Z,100987.16
2017-04-15T10:27:21.896Z,100985.56
2017-04-15T10:28:20.431Z,100993.87
2017-04-15T10:29:18.996Z,100989.13
2017-04-15T10:30:17.571Z,100987.27
2017-04-15T10:31:16.407Z,100995.88
2017-04-15T10:32:15.172Z,100990.67
2017-04-15T10:33:13.765Z,100982.80
2017-04-15T10:34:12.291Z,100984.00
2017-04-15T10:35:11.042Z,100989.80
2017-04-15T10:36:09.563Z,100995.31
2017-04-15T10:37:08.156Z,100985.63
2017-04-15T10:38:06.691Z,100990.16
2017-04-15T10:39:06.062Z,100994.27
2017-04-15T10:40:04.635Z,100989.48
2017-04-15T10:41:03.203Z,100993.34
2017-04-15T10:42:02.158Z,100990.19
2017-04-15T10:43:00.659Z,100988.40
2017-04-15T10:43:59.157Z,100986.30
2017-04-15T10:44:57.710Z,100983.16
2017-04-15T10:45:56.258Z,100983.47
2017-04-15T10:46:54.763Z,100991.72
2017-04-15T10:47:53.331Z,100990.59
2017-04-15T10:48:51.903Z,100995.05
2017-04-15T10:49:50.433Z,100993.69
2017-04-15T10:50:48.990Z,100993.41
2017-04-15T10:51:47.532Z,100987.22
2017-04-15T10:52:46.439Z,100996.91
2017-04-15T10:53:44.962Z,100987.99
2017-04-15T10:54:43.604Z,100993.64
2017-04-15T10:55:42.192Z,100997.98
2017-04-15T10:56:40.750Z,100993.53
2017-04-15T10:57:39.268Z,100992.30
2017-04-15T10:58:37.880Z,100992.77
2017-04-15T10:59:36.414Z,100993.69
2017-04-15T11:00:34.969Z,101011.18
2017-04-15T11:01:33.487Z,101001.91
2017-04-15T11:02:32.069Z,101000.67
2017-04-15T11:03:31.060Z,101004.02
2017-04-15T11:04:29.592Z,101009.27
2017-04-15T11:05:28.198Z,101009.63
2017-04-15T11:06:26.817Z,101016.73
2017-04-15T11:07:25.343Z,101012.00
2017-04-15T11:08:23.881Z,101016.59
2017-04-15T11:09:22.431Z,101018.89